createdAt,value
2023-01-29T00:00:02.338Z,1025.5
2023-01-29T00:01:02.246Z,1025.5
2023-01-29T00:02:02.343Z,1025.5
2023-01-29T00:03:02.309Z,1025.5
2023-01-29T00:04:02.175Z,1025.5
2023-01-29T00:05:28.573Z,1025.5
2023-01-29T00:06:02.375Z,1025.4
2023-01-29T00:07:02.348Z,1025.5
2023-01-29T00:08:02.429Z,1025.5
2023-01-29T00:09:02.242Z,1025.5
2023-01-29T00:10:02.142Z,1025.4
2023-01-29T00:11:02.056Z,1025.4
2023-01-29T00:12:02.066Z,1025.4
2023-01-29T00:13:02.011Z,1025.4
2023-01-29T00:14:01.928Z,1025.5
2023-01-29T00:15:01.870Z,1025.5
2023-01-29T00:16:01.850Z,1025.4
2023-01-29T00:17:02.740Z,1025.5
2023-01-29T00:18:02.514Z,1025.4
2023-01-29T00:19:02.543Z,1025.4
2023-01-29T00:20:02.551Z,1025.5
2023-01-29T00:21:02.452Z,1025.4
2023-01-29T00:22:02.412Z,1025.5
2023-01-29T00:23:02.275Z,1025.5
2023-01-29T00:24:02.459Z,1025.5
2023-01-29T00:25:02.357Z,1025.6
2023-01-29T00:26:02.123Z,1025.5
2023-01-29T00:27:02.062Z,1025.6
2023-01-29T00:28:02.012Z,1025.5
2023-01-29T00:29:01.942Z,1025.6
2023-01-29T00:30:01.820Z,1025.5
2023-01-29T00:31:02.034Z,1025.6
2023-01-29T00:32:02.434Z,1025.6
2023-01-29T00:33:02.238Z,1025.6
2023-01-29T00:34:02.203Z,1025.6
2023-01-29T00:35:02.085Z,1025.6
2023-01-29T00:36:02.150Z,1025.6
2023-01-29T00:37:02.045Z,1025.6
2023-01-29T00:38:01.948Z,1025.6
2023-01-29T00:39:01.828Z,1025.6
2023-01-29T00:40:01.904Z,1025.6
2023-01-29T00:41:01.759Z,1025.6
2023-01-29T00:42:02.692Z,1025.6
2023-01-29T00:43:02.582Z,1025.6
2023-01-29T00:44:02.600Z,1025.6
2023-01-29T00:45:02.543Z,1025.6
2023-01-29T00:46:02.442Z,1025.7
2023-01-29T00:47:02.250Z,1025.7
2023-01-29T00:48:02.216Z,1025.7
2023-01-29T00:49:02.119Z,1025.7
2023-01-29T00:50:02.094Z,1025.7
2023-01-29T00:51:01.949Z,1025.7
2023-01-29T00:52:01.927Z,1025.7
2023-01-29T00:53:01.870Z,1025.7
2023-01-29T00:54:01.775Z,1025.6
2023-01-29T00:55:01.729Z,1025.7
2023-01-29T00:56:02.711Z,1025.7
2023-01-29T00:57:02.608Z,1025.7
2023-01-29T00:58:02.568Z,1025.7
2023-01-29T00:59:02.497Z,1025.7
2023-01-29T01:00:02.493Z,1025.8
2023-01-29T01:01:02.553Z,1025.8
2023-01-29T01:02:02.581Z,1025.8
2023-01-29T01:03:02.389Z,1025.8
2023-01-29T01:04:02.345Z,1025.8
2023-01-29T01:05:02.297Z,1025.8
2023-01-29T01:06:02.176Z,1025.8
2023-01-29T01:07:02.081Z,1025.9
2023-01-29T01:08:02.100Z,1025.8
2023-01-29T01:09:02.031Z,1025.9
2023-01-29T01:10:01.967Z,1025.9
2023-01-29T01:11:01.892Z,1025.9
2023-01-29T01:12:01.822Z,1025.8
2023-01-29T01:13:01.767Z,1025.8
2023-01-29T01:14:02.719Z,1025.9
2023-01-29T01:15:02.549Z,1025.8
2023-01-29T01:16:02.906Z,1025.8
2023-01-29T01:17:02.439Z,1025.7
2023-01-29T01:18:02.456Z,1025.8
2023-01-29T01:19:02.404Z,1025.7
2023-01-29T01:20:02.327Z,1025.8
2023-01-29T01:21:02.356Z,1025.7
2023-01-29T01:22:02.281Z,1025.7
2023-01-29T01:23:02.054Z,1025.7
2023-01-29T01:24:02.217Z,1025.6
2023-01-29T01:25:02.044Z,1025.7
2023-01-29T01:26:01.968Z,1025.7
2023-01-29T01:27:01.818Z,1025.7
2023-01-29T01:28:01.931Z,1025.7
2023-01-29T01:29:02.758Z,1025.6
2023-01-29T01:30:01.695Z,1025.6
2023-01-29T01:31:02.841Z,1025.6
2023-01-29T01:32:02.005Z,1025.7
2023-01-29T01:33:01.868Z,1025.7
2023-01-29T01:34:02.770Z,1025.6
2023-01-29T01:35:02.612Z,1025.7
2023-01-29T01:36:02.745Z,1025.6
2023-01-29T01:37:02.549Z,1025.6
2023-01-29T01:38:02.589Z,1025.6
2023-01-29T01:39:02.458Z,1025.7
2023-01-29T01:40:02.572Z,1025.7
2023-01-29T01:41:02.436Z,1025.7
2023-01-29T01:42:02.443Z,1025.7
2023-01-29T01:43:02.395Z,1025.6
2023-01-29T01:44:02.315Z,1025.6
2023-01-29T01:45:02.411Z,1025.7
2023-01-29T01:46:02.482Z,1025.6
2023-01-29T01:47:02.264Z,1025.6
2023-01-29T01:48:02.368Z,1025.5
2023-01-29T01:49:02.350Z,1025.6
2023-01-29T01:50:02.134Z,1025.6
2023-01-29T01:51:02.177Z,1025.6
2023-01-29T01:52:02.087Z,1025.5
2023-01-29T01:53:02.120Z,1025.5
2023-01-29T01:54:01.940Z,1025.5
2023-01-29T01:55:01.983Z,1025.5
2023-01-29T01:56:01.853Z,1025.5
2023-01-29T01:57:01.934Z,1025.5
2023-01-29T01:58:01.730Z,1025.5
2023-01-29T01:59:01.754Z,1025.5
2023-01-29T02:00:02.742Z,1025.4
2023-01-29T02:01:02.905Z,1025.3
2023-01-29T02:02:02.751Z,1025.4
2023-01-29T02:03:02.681Z,1025.3
2023-01-29T02:04:02.591Z,1025.4
2023-01-29T02:05:02.655Z,1025.3
2023-01-29T02:06:02.470Z,1025.3
2023-01-29T02:07:02.573Z,1025.3
2023-01-29T02:08:02.489Z,1025.3
2023-01-29T02:09:02.498Z,1025.3
2023-01-29T02:10:02.435Z,1025.3
2023-01-29T02:11:02.295Z,1025.3
2023-01-29T02:12:02.326Z,1025.4
2023-01-29T02:13:02.344Z,1025.4
2023-01-29T02:14:02.186Z,1025.5
2023-01-29T02:15:02.203Z,1025.4
2023-01-29T02:16:02.000Z,1025.4
2023-01-29T02:17:02.124Z,1025.4
2023-01-29T02:18:02.147Z,1025.4
2023-01-29T02:19:02.033Z,1025.4
2023-01-29T02:20:02.052Z,1025.4
2023-01-29T02:21:01.864Z,1025.3
2023-01-29T02:22:01.852Z,1025.3
2023-01-29T02:23:04.135Z,1025.2
2023-01-29T02:24:02.125Z,1025.3
2023-01-29T02:25:02.041Z,1025.3
2023-01-29T02:26:01.808Z,1025.3
2023-01-29T02:27:01.856Z,1025.3
2023-01-29T02:28:01.754Z,1025.3
2023-01-29T02:29:02.745Z,1025.2
2023-01-29T02:30:02.579Z,1025.2
2023-01-29T02:31:02.751Z,1025.1
2023-01-29T02:32:02.630Z,1025
2023-01-29T02:33:02.519Z,1025.1
2023-01-29T02:34:02.448Z,1025
2023-01-29T02:35:02.267Z,1025.1
2023-01-29T02:36:02.357Z,1025.1
2023-01-29T02:37:02.317Z,1025.2
2023-01-29T02:38:02.165Z,1025.2
2023-01-29T02:39:02.247Z,1025.2
2023-01-29T02:40:02.102Z,1025.2
2023-01-29T02:41:02.128Z,1025.2
2023-01-29T02:42:02.051Z,1025.2
2023-01-29T02:43:02.019Z,1025.2
2023-01-29T02:44:01.912Z,1025.2
2023-01-29T02:45:01.962Z,1025.3
2023-01-29T02:46:01.932Z,1025.3
2023-01-29T02:47:01.941Z,1025.3
2023-01-29T02:48:02.065Z,1025.3
2023-01-29T02:49:01.921Z,1025.4
2023-01-29T02:50:01.819Z,1025.3
2023-01-29T02:51:02.725Z,1025.3
2023-01-29T02:52:02.665Z,1025.3
2023-01-29T02:53:02.794Z,1025.4
2023-01-29T02:54:02.610Z,1025.4
2023-01-29T02:55:02.700Z,1025.4
2023-01-29T02:56:02.512Z,1025.4
2023-01-29T02:57:02.594Z,1025.4
2023-01-29T02:58:02.445Z,1025.5
2023-01-29T02:59:02.512Z,1025.4
2023-01-29T03:00:02.448Z,1025.4
2023-01-29T03:01:02.494Z,1025.5
2023-01-29T03:02:02.758Z,1025.4
2023-01-29T03:03:02.681Z,1025.5
2023-01-29T03:04:02.569Z,1025.4
2023-01-29T03:05:02.635Z,1025.4
2023-01-29T03:06:02.506Z,1025.4
2023-01-29T03:07:02.537Z,1025.4
2023-01-29T03:08:02.508Z,1025.4
2023-01-29T03:09:02.396Z,1025.3
2023-01-29T03:10:02.399Z,1025.4
2023-01-29T03:11:02.341Z,1025.4
2023-01-29T03:12:02.226Z,1025.4
2023-01-29T03:13:02.252Z,1025.4
2023-01-29T03:14:02.199Z,1025.4
2023-01-29T03:15:02.045Z,1025.4
2023-01-29T03:16:02.183Z,1025.5
2023-01-29T03:17:02.441Z,1025.5
2023-01-29T03:18:02.258Z,1025.5
2023-01-29T03:19:02.322Z,1025.6
2023-01-29T03:20:02.340Z,1025.5
2023-01-29T03:21:02.222Z,1025.6
2023-01-29T03:22:02.358Z,1025.6
2023-01-29T03:23:02.063Z,1025.7
2023-01-29T03:24:02.225Z,1025.6
2023-01-29T03:25:02.089Z,1025.6
2023-01-29T03:26:02.159Z,1025.7
2023-01-29T03:27:02.041Z,1025.7
2023-01-29T03:28:02.013Z,1025.6
2023-01-29T03:29:01.895Z,1025.7
2023-01-29T03:30:01.967Z,1025.6
2023-01-29T03:31:01.889Z,1025.5
2023-01-29T03:32:02.856Z,1025.6
2023-01-29T03:33:02.767Z,1025.6
2023-01-29T03:34:02.598Z,1025.6
2023-01-29T03:35:02.719Z,1025.6
2023-01-29T03:36:02.583Z,1025.6
2023-01-29T03:37:02.630Z,1025.6
2023-01-29T03:38:02.508Z,1025.5
2023-01-29T03:39:02.550Z,1025.5
2023-01-29T03:40:02.390Z,1025.5
2023-01-29T03:41:02.436Z,1025.5
2023-01-29T03:42:02.380Z,1025.5
2023-01-29T03:43:02.193Z,1025.5
2023-01-29T03:44:02.262Z,1025.5
2023-01-29T03:45:02.078Z,1025.5
2023-01-29T03:46:02.338Z,1025.4
2023-01-29T03:47:02.076Z,1025.4
2023-01-29T03:48:02.221Z,1025.4
2023-01-29T03:49:02.089Z,1025.4
2023-01-29T03:50:02.156Z,1025.4
2023-01-29T03:51:01.951Z,1025.4
2023-01-29T03:52:01.979Z,1025.4
2023-01-29T03:53:01.852Z,1025.4
2023-01-29T03:54:01.794Z,1025.4
2023-01-29T03:55:02.775Z,1025.3
2023-01-29T03:56:02.647Z,1025.4
2023-01-29T03:57:02.700Z,1025.4
2023-01-29T03:58:02.517Z,1025.4
2023-01-29T03:59:02.587Z,1025.3
2023-01-29T04:00:02.462Z,1025.4
2023-01-29T04:01:02.473Z,1025.4
2023-01-29T04:02:02.261Z,1025.4
2023-01-29T04:03:02.167Z,1025.3
2023-01-29T04:04:02.423Z,1025.3
2023-01-29T04:05:02.259Z,1025.3
2023-01-29T04:06:02.273Z,1025.3
2023-01-29T04:07:02.109Z,1025.3
2023-01-29T04:08:02.016Z,1025.3
2023-01-29T04:09:02.040Z,1025.3
2023-01-29T04:10:02.057Z,1025.3
2023-01-29T04:11:01.889Z,1025.3
2023-01-29T04:12:01.958Z,1025.4
2023-01-29T04:13:01.857Z,1025.3
2023-01-29T04:14:02.803Z,1025.3
2023-01-29T04:15:02.651Z,1025.3
2023-01-29T04:16:03.096Z,1025.2
2023-01-29T04:17:02.637Z,1025.2
2023-01-29T04:18:02.694Z,1025.2
2023-01-29T04:19:02.491Z,1025.2
2023-01-29T04:20:02.570Z,1025.2
2023-01-29T04:21:02.446Z,1025.2
2023-01-29T04:22:02.501Z,1025.2
2023-01-29T04:23:02.423Z,1025.2
2023-01-29T04:24:02.461Z,1025.2
2023-01-29T04:25:02.364Z,1025.1
2023-01-29T04:26:02.308Z,1025.2
2023-01-29T04:27:02.164Z,1025.2
2023-01-29T04:28:02.274Z,1025
2023-01-29T04:29:02.052Z,1025.1
2023-01-29T04:30:02.112Z,1025
2023-01-29T04:31:02.447Z,1025
2023-01-29T04:32:02.111Z,1024.9
2023-01-29T04:33:02.192Z,1024.9
2023-01-29T04:34:02.164Z,1024.9
2023-01-29T04:35:02.107Z,1024.8
2023-01-29T04:36:01.995Z,1024.8
2023-01-29T04:37:01.850Z,1024.7
2023-01-29T04:38:01.954Z,1024.7
2023-01-29T04:39:01.820Z,1024.7
2023-01-29T04:40:02.768Z,1024.7
2023-01-29T04:41:02.662Z,1024.8
2023-01-29T04:42:02.675Z,1024.8
2023-01-29T04:43:02.559Z,1024.8
2023-01-29T04:44:02.647Z,1024.8
2023-01-29T04:45:02.532Z,1024.8
2023-01-29T04:46:02.605Z,1024.8
2023-01-29T04:47:02.766Z,1024.7
2023-01-29T04:48:02.662Z,1024.6
2023-01-29T04:49:02.518Z,1024.7
2023-01-29T04:50:02.563Z,1024.6
2023-01-29T04:51:02.424Z,1024.6
2023-01-29T04:52:02.453Z,1024.6
2023-01-29T04:53:02.429Z,1024.6
2023-01-29T04:54:02.266Z,1024.6
2023-01-29T04:55:02.249Z,1024.6
2023-01-29T04:56:02.070Z,1024.6
2023-01-29T04:57:02.232Z,1024.6
2023-01-29T04:58:02.016Z,1024.5
2023-01-29T04:59:02.021Z,1024.6
2023-01-29T05:00:01.825Z,1024.6
2023-01-29T05:01:01.887Z,1024.6
2023-01-29T05:02:01.903Z,1024.6
2023-01-29T05:03:02.847Z,1024.6
2023-01-29T05:04:02.609Z,1024.6
2023-01-29T05:05:02.707Z,1024.6
2023-01-29T05:06:02.732Z,1024.6
2023-01-29T05:07:02.533Z,1024.6
2023-01-29T05:08:02.417Z,1024.6
2023-01-29T05:09:02.500Z,1024.5
2023-01-29T05:10:02.459Z,1024.6
2023-01-29T05:11:02.295Z,1024.6
2023-01-29T05:12:02.336Z,1024.7
2023-01-29T05:13:02.285Z,1024.7
2023-01-29T05:14:02.098Z,1024.8
2023-01-29T05:15:02.111Z,1024.8
2023-01-29T05:16:02.047Z,1024.7
2023-01-29T05:17:02.029Z,1024.7
2023-01-29T05:18:02.115Z,1024.7
2023-01-29T05:19:01.930Z,1024.7
2023-01-29T05:20:01.977Z,1024.7
2023-01-29T05:21:01.801Z,1024.7
2023-01-29T05:22:02.745Z,1024.7
2023-01-29T05:23:02.651Z,1024.7
2023-01-29T05:24:02.748Z,1024.8
2023-01-29T05:25:02.624Z,1024.7
2023-01-29T05:26:02.715Z,1024.8
2023-01-29T05:27:02.528Z,1024.7
2023-01-29T05:28:02.602Z,1024.8
2023-01-29T05:29:02.492Z,1024.8
2023-01-29T05:30:02.596Z,1024.8
2023-01-29T05:31:02.708Z,1024.8
2023-01-29T05:32:02.543Z,1024.8
2023-01-29T05:33:02.642Z,1024.8
2023-01-29T05:34:02.548Z,1024.8
2023-01-29T05:35:02.563Z,1024.9
2023-01-29T05:36:02.390Z,1024.8
2023-01-29T05:37:02.519Z,1024.8
2023-01-29T05:38:02.553Z,1024.7
2023-01-29T05:39:02.292Z,1024.8
2023-01-29T05:40:02.362Z,1024.7
2023-01-29T05:41:02.299Z,1024.7
2023-01-29T05:42:02.255Z,1024.7
2023-01-29T05:43:02.101Z,1024.7
2023-01-29T05:44:02.035Z,1024.6
2023-01-29T05:45:02.226Z,1024.7
2023-01-29T05:46:02.028Z,1024.6
2023-01-29T05:47:01.939Z,1024.7
2023-01-29T05:48:01.955Z,1024.7
2023-01-29T05:49:01.831Z,1024.8
2023-01-29T05:50:01.804Z,1024.8
2023-01-29T05:51:02.712Z,1024.8
2023-01-29T05:52:02.549Z,1024.7
2023-01-29T05:53:02.795Z,1024.7
2023-01-29T05:54:02.546Z,1024.7
2023-01-29T05:55:02.582Z,1024.7
2023-01-29T05:56:02.454Z,1024.8
2023-01-29T05:57:02.570Z,1024.8
2023-01-29T05:58:06.102Z,1024.8
2023-01-29T05:59:01.821Z,1024.8
2023-01-29T06:00:01.874Z,1024.8
2023-01-29T06:01:02.799Z,1024.8
2023-01-29T06:02:02.609Z,1024.8
2023-01-29T06:03:02.743Z,1024.8
2023-01-29T06:04:02.543Z,1024.8
2023-01-29T06:05:02.462Z,1024.8
2023-01-29T06:06:02.497Z,1024.9
2023-01-29T06:07:02.269Z,1024.8
2023-01-29T06:08:02.429Z,1024.8
2023-01-29T06:09:02.292Z,1024.8
2023-01-29T06:10:02.153Z,1024.8
2023-01-29T06:11:02.130Z,1024.8
2023-01-29T06:12:01.968Z,1024.9
2023-01-29T06:13:02.042Z,1024.9
2023-01-29T06:14:01.899Z,1024.9
2023-01-29T06:15:01.951Z,1024.9
2023-01-29T06:16:01.833Z,1024.9
2023-01-29T06:17:01.955Z,1024.8
2023-01-29T06:18:01.992Z,1024.9
2023-01-29T06:19:01.800Z,1024.8
2023-01-29T06:20:01.833Z,1024.8
2023-01-29T06:21:02.808Z,1024.8
2023-01-29T06:22:02.649Z,1024.9
2023-01-29T06:23:02.666Z,1024.9
2023-01-29T06:24:02.794Z,1024.9
2023-01-29T06:25:02.613Z,1024.9
2023-01-29T06:26:02.474Z,1025
2023-01-29T06:27:02.624Z,1025
2023-01-29T06:28:02.473Z,1025
2023-01-29T06:29:02.352Z,1025
2023-01-29T06:30:02.382Z,1024.9
2023-01-29T06:31:38.988Z,1025
2023-01-29T06:32:02.444Z,1025
2023-01-29T06:33:02.316Z,1025
2023-01-29T06:34:02.316Z,1025
2023-01-29T06:35:02.152Z,1025
2023-01-29T06:36:02.242Z,1025
2023-01-29T06:37:02.112Z,1025
2023-01-29T06:38:02.085Z,1025
2023-01-29T06:39:02.019Z,1025
2023-01-29T06:40:02.029Z,1025
2023-01-29T06:41:01.842Z,1025
2023-01-29T06:42:01.939Z,1024.9
2023-01-29T06:43:01.744Z,1024.9
2023-01-29T06:44:02.809Z,1024.9
2023-01-29T06:45:02.637Z,1024.9
2023-01-29T06:46:02.970Z,1024.9
2023-01-29T06:47:02.507Z,1024.9
2023-01-29T06:48:02.709Z,1024.9
2023-01-29T06:49:02.512Z,1024.9
2023-01-29T06:50:02.611Z,1024.9
2023-01-29T06:51:02.438Z,1024.9
2023-01-29T06:52:02.341Z,1024.9
2023-01-29T06:53:02.419Z,1024.9
2023-01-29T06:54:02.387Z,1024.9
2023-01-29T06:55:02.211Z,1024.9
2023-01-29T06:56:02.277Z,1024.9
2023-01-29T06:57:02.265Z,1025
2023-01-29T06:58:02.064Z,1024.9
2023-01-29T06:59:02.115Z,1025
2023-01-29T07:00:02.027Z,1025
2023-01-29T07:01:02.293Z,1024.9
2023-01-29T07:02:01.988Z,1024.9
2023-01-29T07:03:01.913Z,1024.9
2023-01-29T07:04:01.798Z,1025
2023-01-29T07:05:02.477Z,1025
2023-01-29T07:06:02.427Z,1025
2023-01-29T07:07:02.347Z,1025
2023-01-29T07:08:02.252Z,1025
2023-01-29T07:09:02.313Z,1025
2023-01-29T07:10:02.198Z,1025
2023-01-29T07:11:02.126Z,1025.1
2023-01-29T07:12:01.942Z,1025
2023-01-29T07:13:01.989Z,1025
2023-01-29T07:14:01.844Z,1025.1
2023-01-29T07:15:01.855Z,1025
2023-01-29T07:16:02.034Z,1025
2023-01-29T07:17:01.991Z,1025.1
2023-01-29T07:18:02.045Z,1025.1
2023-01-29T07:19:01.855Z,1025.1
2023-01-29T07:20:01.850Z,1025.1
2023-01-29T07:21:02.749Z,1025.1
2023-01-29T07:22:02.739Z,1025.1
2023-01-29T07:23:02.607Z,1025.1
2023-01-29T07:24:02.685Z,1025.1
2023-01-29T07:25:02.561Z,1025.2
2023-01-29T07:26:02.461Z,1025.2
2023-01-29T07:27:02.500Z,1025.2
2023-01-29T07:28:02.455Z,1025.1
2023-01-29T07:29:02.290Z,1025.1
2023-01-29T07:30:02.372Z,1025.1
2023-01-29T07:31:02.359Z,1025.1
2023-01-29T07:32:02.503Z,1025.2
2023-01-29T07:33:02.420Z,1025.1
2023-01-29T07:34:02.368Z,1025.1
2023-01-29T07:35:02.237Z,1025.2
2023-01-29T07:36:02.174Z,1025.1
2023-01-29T07:37:02.055Z,1025.1
2023-01-29T07:38:02.077Z,1025.1
2023-01-29T07:39:01.907Z,1025.2
2023-01-29T07:40:01.929Z,1025.2
2023-01-29T07:41:03.881Z,1025.2
2023-01-29T07:42:02.574Z,1025.2
2023-01-29T07:43:02.656Z,1025.3
2023-01-29T07:44:02.523Z,1025.2
2023-01-29T07:45:02.648Z,1025.3
2023-01-29T07:46:02.804Z,1025.2
2023-01-29T07:47:02.474Z,1025.2
2023-01-29T07:48:02.534Z,1025.2
2023-01-29T07:49:02.422Z,1025.2
2023-01-29T07:50:02.424Z,1025.2
2023-01-29T07:51:02.366Z,1025.2
2023-01-29T07:52:02.211Z,1025.2
2023-01-29T07:53:02.254Z,1025.3
2023-01-29T07:54:02.115Z,1025.3
2023-01-29T07:55:02.093Z,1025.3
2023-01-29T07:56:01.956Z,1025.3
2023-01-29T07:57:02.002Z,1025.4
2023-01-29T07:58:01.920Z,1025.4
2023-01-29T07:59:01.754Z,1025.4
2023-01-29T08:00:02.790Z,1025.4
2023-01-29T08:01:02.773Z,1025.5
2023-01-29T08:02:02.811Z,1025.5
2023-01-29T08:03:02.674Z,1025.5
2023-01-29T08:04:02.503Z,1025.5
2023-01-29T08:05:02.575Z,1025.5
2023-01-29T08:06:02.426Z,1025.5
2023-01-29T08:07:02.437Z,1025.5
2023-01-29T08:08:08.293Z,1025.5
2023-01-29T08:09:02.032Z,1025.5
2023-01-29T08:10:02.243Z,1025.6
2023-01-29T08:11:01.974Z,1025.6
2023-01-29T08:12:01.985Z,1025.6
2023-01-29T08:13:01.858Z,1025.6
2023-01-29T08:14:01.905Z,1025.6
2023-01-29T08:15:02.742Z,1025.5
2023-01-29T08:16:02.616Z,1025.6
2023-01-29T08:17:02.589Z,1025.6
2023-01-29T08:18:02.717Z,1025.5
2023-01-29T08:19:02.507Z,1025.6
2023-01-29T08:20:02.530Z,1025.6
2023-01-29T08:21:02.408Z,1025.6
2023-01-29T08:22:02.419Z,1025.6
2023-01-29T08:23:02.412Z,1025.6
2023-01-29T08:25:09.119Z,1025.7
2023-01-29T08:26:02.106Z,1025.6
2023-01-29T08:27:01.909Z,1025.6
2023-01-29T08:28:01.923Z,1025.6
2023-01-29T08:29:01.800Z,1025.6
2023-01-29T08:30:02.709Z,1025.6
2023-01-29T08:31:02.806Z,1025.7
2023-01-29T08:32:02.756Z,1025.7
2023-01-29T08:33:02.856Z,1025.6
2023-01-29T08:34:02.610Z,1025.7
2023-01-29T08:35:02.607Z,1025.6
2023-01-29T08:36:02.566Z,1025.7
2023-01-29T08:37:02.443Z,1025.7
2023-01-29T08:38:02.456Z,1025.8
2023-01-29T08:39:02.304Z,1025.7
2023-01-29T08:40:02.280Z,1025.6
2023-01-29T08:41:02.130Z,1025.8
2023-01-29T08:42:02.210Z,1025.7
2023-01-29T08:43:06.251Z,1025.8
2023-01-29T08:44:01.722Z,1025.7
2023-01-29T08:45:02.796Z,1025.7
2023-01-29T08:46:02.698Z,1025.7
2023-01-29T08:47:01.769Z,1025.6
2023-01-29T08:48:02.793Z,1025.7
2023-01-29T08:49:02.671Z,1025.7
2023-01-29T08:50:02.766Z,1025.7
2023-01-29T08:51:02.670Z,1025.7
2023-01-29T08:52:04.319Z,1025.7
2023-01-29T08:53:02.054Z,1025.6
2023-01-29T08:54:02.112Z,1025.6
2023-01-29T08:55:01.936Z,1025.6
2023-01-29T08:56:02.001Z,1025.6
2023-01-29T08:57:01.844Z,1025.7
2023-01-29T08:58:01.853Z,1025.6
2023-01-29T08:59:02.769Z,1025.6
2023-01-29T09:00:02.657Z,1025.6
2023-01-29T09:01:02.876Z,1025.7
2023-01-29T09:02:02.625Z,1025.6
2023-01-29T09:03:02.455Z,1025.7
2023-01-29T09:04:02.283Z,1025.6
2023-01-29T09:05:02.256Z,1025.5
2023-01-29T09:06:02.278Z,1025.4
2023-01-29T09:07:02.231Z,1025.4
2023-01-29T09:08:02.030Z,1025.4
2023-01-29T09:09:02.056Z,1025.3
2023-01-29T09:10:01.869Z,1025.3
2023-01-29T09:11:01.841Z,1025.3
2023-01-29T09:12:01.724Z,1025.3
2023-01-29T09:13:02.805Z,1025.2
2023-01-29T09:14:02.652Z,1025.2
2023-01-29T09:15:02.723Z,1025.2
2023-01-29T09:16:02.607Z,1025.2
2023-01-29T09:17:02.425Z,1025.2
2023-01-29T09:18:02.392Z,1025.2
2023-01-29T09:19:02.365Z,1025.2
2023-01-29T09:20:02.309Z,1025.2
2023-01-29T09:21:02.296Z,1025.3
2023-01-29T09:22:02.141Z,1025.2
2023-01-29T09:23:02.052Z,1025.2
2023-01-29T09:24:01.973Z,1025.2
2023-01-29T09:25:02.034Z,1025.3
2023-01-29T09:26:01.938Z,1025.2
2023-01-29T09:27:01.935Z,1025.3
2023-01-29T09:28:01.743Z,1025.3
2023-01-29T09:29:02.720Z,1025.3
2023-01-29T09:30:02.633Z,1025.4
2023-01-29T09:31:03.259Z,1025.3
2023-01-29T09:32:01.797Z,1025.3
2023-01-29T09:33:01.854Z,1025.4
2023-01-29T09:34:02.755Z,1025.3
2023-01-29T09:35:02.600Z,1025.4
2023-01-29T09:36:02.680Z,1025.5
2023-01-29T09:37:02.546Z,1025.4
2023-01-29T09:38:02.538Z,1025.4
2023-01-29T09:39:02.405Z,1025.4
2023-01-29T09:40:02.432Z,1025.5
2023-01-29T09:41:02.348Z,1025.5
2023-01-29T09:42:02.188Z,1025.4
2023-01-29T09:43:02.217Z,1025.4
2023-01-29T09:44:02.040Z,1025.5
2023-01-29T09:45:02.095Z,1025.4
2023-01-29T09:46:02.149Z,1025.4
2023-01-29T09:47:02.081Z,1025.4
2023-01-29T09:48:02.248Z,1025.4
2023-01-29T09:49:02.027Z,1025.4
2023-01-29T09:50:02.065Z,1025.3
2023-01-29T09:51:01.851Z,1025.4
2023-01-29T09:52:01.902Z,1025.3
2023-01-29T09:53:01.758Z,1025.3
2023-01-29T09:54:01.783Z,1025.3
2023-01-29T09:55:02.777Z,1025.3
2023-01-29T09:56:02.570Z,1025.2
2023-01-29T09:57:02.680Z,1025.3
2023-01-29T09:58:02.520Z,1025.3
2023-01-29T09:59:02.805Z,1025.3
2023-01-29T10:00:02.608Z,1025.2
2023-01-29T10:01:02.679Z,1025.2
2023-01-29T10:02:02.089Z,1025.2
2023-01-29T10:03:01.954Z,1025.1
2023-01-29T10:04:01.778Z,1025.1
2023-01-29T10:05:01.817Z,1025
2023-01-29T10:06:02.722Z,1025
2023-01-29T10:07:02.598Z,1024.9
2023-01-29T10:08:02.616Z,1024.8
2023-01-29T10:09:02.524Z,1024.9
2023-01-29T10:10:02.597Z,1024.9
2023-01-29T10:11:02.422Z,1025
2023-01-29T10:12:02.291Z,1024.9
2023-01-29T10:13:02.365Z,1024.8
2023-01-29T10:14:02.283Z,1024.9
2023-01-29T10:15:02.146Z,1024.8
2023-01-29T10:16:02.135Z,1024.8
2023-01-29T10:17:02.018Z,1024.8
2023-01-29T10:18:01.990Z,1024.9
2023-01-29T10:19:01.743Z,1024.8
2023-01-29T10:20:02.755Z,1024.8
2023-01-29T10:21:02.624Z,1024.8
2023-01-29T10:22:02.637Z,1024.7
2023-01-29T10:23:02.534Z,1024.6
2023-01-29T10:24:02.636Z,1024.6
2023-01-29T10:25:02.450Z,1024.6
2023-01-29T10:26:02.669Z,1024.6
2023-01-29T10:27:02.404Z,1024.6
2023-01-29T10:28:02.349Z,1024.5
2023-01-29T10:29:02.427Z,1024.6
2023-01-29T10:30:02.418Z,1024.5
2023-01-29T10:31:02.453Z,1024.5
2023-01-29T10:32:03.069Z,1024.5
2023-01-29T10:33:01.962Z,1024.4
2023-01-29T10:34:03.659Z,1024.4
2023-01-29T10:35:02.385Z,1024.4
2023-01-29T10:36:02.395Z,1024.4
2023-01-29T10:37:02.343Z,1024.4
2023-01-29T10:38:02.195Z,1024.4
2023-01-29T10:39:02.155Z,1024.3
2023-01-29T10:40:02.091Z,1024.3
2023-01-29T10:41:01.995Z,1024.3
2023-01-29T10:42:01.954Z,1024.2
2023-01-29T10:43:01.978Z,1024.3
2023-01-29T10:44:01.723Z,1024.2
2023-01-29T10:45:02.804Z,1024.2
2023-01-29T10:46:02.637Z,1024.2
2023-01-29T10:47:02.787Z,1024.1
2023-01-29T10:48:02.742Z,1024.1
2023-01-29T10:49:02.533Z,1024.1
2023-01-29T10:50:02.591Z,1024
2023-01-29T10:51:02.378Z,1024.1
2023-01-29T10:52:02.429Z,1024.1
2023-01-29T10:53:02.428Z,1024
2023-01-29T10:54:02.222Z,1024
2023-01-29T10:55:02.256Z,1024.1
2023-01-29T10:56:23.474Z,1024.1
2023-01-29T10:57:02.328Z,1024.1
2023-01-29T10:58:03.601Z,1024
2023-01-29T10:59:02.421Z,1024
2023-01-29T11:00:02.264Z,1024
2023-01-29T11:01:02.387Z,1023.9
2023-01-29T11:02:02.367Z,1024
2023-01-29T11:03:02.578Z,1023.9
2023-01-29T11:04:02.439Z,1023.9
2023-01-29T11:05:02.395Z,1023.9
2023-01-29T11:06:02.211Z,1023.8
2023-01-29T11:07:02.233Z,1023.7
2023-01-29T11:08:02.051Z,1023.7
2023-01-29T11:09:02.044Z,1023.7
2023-01-29T11:10:02.039Z,1023.7
2023-01-29T11:11:02.080Z,1023.7
2023-01-29T11:12:01.802Z,1023.7
2023-01-29T11:13:01.782Z,1023.7
2023-01-29T11:14:01.713Z,1023.7
2023-01-29T11:15:02.988Z,1023.7
2023-01-29T11:16:01.701Z,1023.6
2023-01-29T11:17:02.698Z,1023.6
2023-01-29T11:18:02.697Z,1023.5
2023-01-29T11:19:02.520Z,1023.5
2023-01-29T11:20:02.571Z,1023.5
2023-01-29T11:21:02.500Z,1023.5
2023-01-29T11:22:02.423Z,1023.5
2023-01-29T11:23:02.381Z,1023.5
2023-01-29T11:24:02.246Z,1023.5
2023-01-29T11:25:02.327Z,1023.5
2023-01-29T11:26:02.294Z,1023.5
2023-01-29T11:27:02.165Z,1023.4
2023-01-29T11:28:02.252Z,1023.4
2023-01-29T11:29:02.065Z,1023.5
2023-01-29T11:30:02.218Z,1023.4
2023-01-29T11:31:02.586Z,1023.4
2023-01-29T11:32:02.017Z,1023.4
2023-01-29T11:33:02.076Z,1023.4
2023-01-29T11:34:01.975Z,1023.5
2023-01-29T11:35:02.035Z,1023.3
2023-01-29T11:36:01.860Z,1023.4
2023-01-29T11:37:01.805Z,1023.4
2023-01-29T11:38:02.801Z,1023.3
2023-01-29T11:39:02.656Z,1023.4
2023-01-29T11:40:02.697Z,1023.3
2023-01-29T11:41:02.619Z,1023.2
2023-01-29T11:42:02.701Z,1023.3
2023-01-29T11:43:02.518Z,1023.2
2023-01-29T11:44:02.591Z,1023.3
2023-01-29T11:45:02.482Z,1023.3
2023-01-29T11:46:02.692Z,1023.3
2023-01-29T11:47:01.891Z,1023.4
2023-01-29T11:48:01.959Z,1023.3
2023-01-29T11:49:21.234Z,1023.4
2023-01-29T11:50:01.960Z,1023.3
2023-01-29T11:51:01.878Z,1023.4
2023-01-29T11:52:01.855Z,1023.3
2023-01-29T11:53:01.881Z,1023.4
2023-01-29T11:54:02.795Z,1023.4
2023-01-29T11:55:02.610Z,1023.3
2023-01-29T11:56:02.698Z,1023.4
2023-01-29T11:57:02.591Z,1023.3
2023-01-29T11:58:02.650Z,1023.4
2023-01-29T11:59:02.525Z,1023.3
2023-01-29T12:00:02.679Z,1023.5
2023-01-29T12:01:02.429Z,1023.4
2023-01-29T12:02:02.438Z,1023.4
2023-01-29T12:03:02.509Z,1023.3
2023-01-29T12:04:02.710Z,1023.3
2023-01-29T12:05:02.472Z,1023.4
2023-01-29T12:06:02.881Z,1023.4
2023-01-29T12:07:02.677Z,1023.4
2023-01-29T12:08:02.560Z,1023.3
2023-01-29T12:09:02.668Z,1023.3
2023-01-29T12:10:02.549Z,1023.3
2023-01-29T12:11:02.578Z,1023.4
2023-01-29T12:12:02.373Z,1023.2
2023-01-29T12:13:02.437Z,1023.3
2023-01-29T12:14:02.441Z,1023.3
2023-01-29T12:15:02.248Z,1023.3
2023-01-29T12:16:02.515Z,1023.3
2023-01-29T12:17:02.108Z,1023.2
2023-01-29T12:18:02.150Z,1023.2
2023-01-29T12:19:02.003Z,1023.2
2023-01-29T12:20:02.056Z,1023.2
2023-01-29T12:21:01.871Z,1023.3
2023-01-29T12:22:04.417Z,1023.2
2023-01-29T12:23:02.216Z,1023.2
2023-01-29T12:24:02.088Z,1023.1
2023-01-29T12:25:02.172Z,1023.2
2023-01-29T12:26:02.023Z,1023.1
2023-01-29T12:27:02.031Z,1023
2023-01-29T12:28:01.933Z,1023.1
2023-01-29T12:29:01.817Z,1023
2023-01-29T12:30:01.780Z,1023
2023-01-29T12:31:02.167Z,1023
2023-01-29T12:32:02.250Z,1023